sensor_id;sensor_type;location;lat;lon;timestamp;P1;durP1;ratioP1;P2;durP2;ratioP2
23608;SDS011;11982;50.810;4.442;2024-01-27T00:01:35;21.45;;;4.03;;
23608;SDS011;11982;50.810;4.442;2024-01-27T00:04:01;19.67;;;3.65;;
23608;SDS011;11982;50.810;4.442;2024-01-27T00:06:27;15.35;;;4.18;;
23608;SDS011;11982;50.810;4.442;2024-01-27T00:08:53;16.27;;;4.50;;
23608;SDS011;11982;50.810;4.442;2024-01-27T00:11:19;32.03;;;4.38;;
23608;SDS011;11982;50.810;4.442;2024-01-27T00:13:45;21.92;;;3.58;;
23608;SDS011;11982;50.810;4.442;2024-01-27T00:16:11;19.90;;;4.32;;
23608;SDS011;11982;50.810;4.442;2024-01-27T00:18:37;29.02;;;4.38;;
23608;SDS011;11982;50.810;4.442;2024-01-27T00:21:06;22.48;;;3.58;;
23608;SDS011;11982;50.810;4.442;2024-01-27T00:23:32;25.90;;;3.70;;
23608;SDS011;11982;50.810;4.442;2024-01-27T00:25:59;18.98;;;3.55;;
23608;SDS011;11982;50.810;4.442;2024-01-27T00:28:28;16.38;;;3.45;;
23608;SDS011;11982;50.810;4.442;2024-01-27T00:30:54;14.95;;;4.13;;
23608;SDS011;11982;50.810;4.442;2024-01-27T00:33:21;19.70;;;3.47;;
23608;SDS011;11982;50.810;4.442;2024-01-27T00:35:47;20.85;;;3.95;;
23608;SDS011;11982;50.810;4.442;2024-01-27T00:38:12;21.20;;;3.72;;
23608;SDS011;11982;50.810;4.442;2024-01-27T00:40:38;19.75;;;4.13;;
23608;SDS011;11982;50.810;4.442;2024-01-27T00:43:04;16.80;;;3.45;;
23608;SDS011;11982;50.810;4.442;2024-01-27T00:45:30;21.27;;;3.72;;
23608;SDS011;11982;50.810;4.442;2024-01-27T00:47:56;12.23;;;3.58;;
23608;SDS011;11982;50.810;4.442;2024-01-27T00:50:22;19.27;;;3.28;;
23608;SDS011;11982;50.810;4.442;2024-01-27T00:52:47;19.65;;;3.83;;
23608;SDS011;11982;50.810;4.442;2024-01-27T00:55:13;17.98;;;3.70;;
23608;SDS011;11982;50.810;4.442;2024-01-27T00:57:39;17.33;;;3.65;;
23608;SDS011;11982;50.810;4.442;2024-01-27T01:00:06;14.50;;;3.67;;
23608;SDS011;11982;50.810;4.442;2024-01-27T01:02:33;25.92;;;3.55;;
23608;SDS011;11982;50.810;4.442;2024-01-27T01:04:59;14.57;;;4.18;;
23608;SDS011;11982;50.810;4.442;2024-01-27T01:07:25;21.17;;;4.28;;
23608;SDS011;11982;50.810;4.442;2024-01-27T01:09:50;16.45;;;3.75;;
23608;SDS011;11982;50.810;4.442;2024-01-27T01:12:16;16.70;;;4.07;;
23608;SDS011;11982;50.810;4.442;2024-01-27T01:14:43;18.80;;;3.42;;
23608;SDS011;11982;50.810;4.442;2024-01-27T01:17:09;19.30;;;4.28;;
23608;SDS011;11982;50.810;4.442;2024-01-27T01:19:36;18.38;;;3.65;;
23608;SDS011;11982;50.810;4.442;2024-01-27T01:22:02;20.55;;;4.20;;
23608;SDS011;11982;50.810;4.442;2024-01-27T01:24:29;22.02;;;5.80;;
23608;SDS011;11982;50.810;4.442;2024-01-27T01:26:55;14.15;;;3.53;;
23608;SDS011;11982;50.810;4.442;2024-01-27T01:29:20;23.83;;;4.40;;
23608;SDS011;11982;50.810;4.442;2024-01-27T01:31:47;27.45;;;4.45;;
23608;SDS011;11982;50.810;4.442;2024-01-27T01:34:13;16.48;;;4.43;;
23608;SDS011;11982;50.810;4.442;2024-01-27T01:36:39;18.80;;;3.53;;
23608;SDS011;11982;50.810;4.442;2024-01-27T01:39:04;19.58;;;4.22;;
23608;SDS011;11982;50.810;4.442;2024-01-27T01:41:31;17.85;;;3.95;;
23608;SDS011;11982;50.810;4.442;2024-01-27T01:43:56;17.10;;;4.68;;
23608;SDS011;11982;50.810;4.442;2024-01-27T01:46:22;14.88;;;3.90;;
23608;SDS011;11982;50.810;4.442;2024-01-27T01:48:51;22.10;;;4.93;;
23608;SDS011;11982;50.810;4.442;2024-01-27T01:51:17;19.15;;;4.38;;
23608;SDS011;11982;50.810;4.442;2024-01-27T01:53:43;18.58;;;4.90;;
23608;SDS011;11982;50.810;4.442;2024-01-27T01:56:15;19.17;;;4.97;;
23608;SDS011;11982;50.810;4.442;2024-01-27T01:58:41;17.75;;;4.57;;
23608;SDS011;11982;50.810;4.442;2024-01-27T02:01:07;22.42;;;5.55;;
23608;SDS011;11982;50.810;4.442;2024-01-27T02:03:34;23.25;;;5.55;;
23608;SDS011;11982;50.810;4.442;2024-01-27T02:05:59;20.00;;;5.13;;
23608;SDS011;11982;50.810;4.442;2024-01-27T02:08:25;18.45;;;4.50;;
23608;SDS011;11982;50.810;4.442;2024-01-27T02:10:51;21.17;;;5.53;;
23608;SDS011;11982;50.810;4.442;2024-01-27T02:15:45;20.20;;;4.30;;
23608;SDS011;11982;50.810;4.442;2024-01-27T02:18:12;16.75;;;3.83;;
23608;SDS011;11982;50.810;4.442;2024-01-27T02:20:38;24.10;;;4.90;;
23608;SDS011;11982;50.810;4.442;2024-01-27T02:23:04;26.65;;;5.60;;
23608;SDS011;11982;50.810;4.442;2024-01-27T02:25:32;16.00;;;4.82;;
23608;SDS011;11982;50.810;4.442;2024-01-27T02:27:58;28.90;;;4.35;;
23608;SDS011;11982;50.810;4.442;2024-01-27T02:30:24;26.67;;;5.63;;
23608;SDS011;11982;50.810;4.442;2024-01-27T02:32:50;34.22;;;5.28;;
23608;SDS011;11982;50.810;4.442;2024-01-27T02:35:20;21.38;;;4.90;;
23608;SDS011;11982;50.810;4.442;2024-01-27T02:37:46;15.00;;;4.82;;
23608;SDS011;11982;50.810;4.442;2024-01-27T02:40:12;17.27;;;4.22;;
23608;SDS011;11982;50.810;4.442;2024-01-27T02:42:37;23.33;;;4.53;;
23608;SDS011;11982;50.810;4.442;2024-01-27T02:45:03;22.77;;;4.18;;
23608;SDS011;11982;50.810;4.442;2024-01-27T02:47:30;16.23;;;4.55;;
23608;SDS011;11982;50.810;4.442;2024-01-27T02:49:55;22.27;;;4.30;;
23608;SDS011;11982;50.810;4.442;2024-01-27T02:52:21;22.05;;;4.57;;
23608;SDS011;11982;50.810;4.442;2024-01-27T02:54:47;15.18;;;4.28;;
23608;SDS011;11982;50.810;4.442;2024-01-27T02:57:13;28.40;;;5.13;;
23608;SDS011;11982;50.810;4.442;2024-01-27T02:59:40;20.88;;;5.50;;
23608;SDS011;11982;50.810;4.442;2024-01-27T03:02:06;28.05;;;5.75;;
23608;SDS011;11982;50.810;4.442;2024-01-27T03:04:32;24.25;;;4.72;;
23608;SDS011;11982;50.810;4.442;2024-01-27T03:06:57;19.80;;;5.60;;
23608;SDS011;11982;50.810;4.442;2024-01-27T03:09:23;19.45;;;4.72;;
23608;SDS011;11982;50.810;4.442;2024-01-27T03:11:49;18.40;;;4.70;;
23608;SDS011;11982;50.810;4.442;2024-01-27T03:14:15;22.15;;;4.82;;
23608;SDS011;11982;50.810;4.442;2024-01-27T03:16:42;23.35;;;5.28;;
23608;SDS011;11982;50.810;4.442;2024-01-27T03:19:09;20.50;;;5.43;;
23608;SDS011;11982;50.810;4.442;2024-01-27T03:21:35;21.52;;;5.32;;
23608;SDS011;11982;50.810;4.442;2024-01-27T03:24:01;27.02;;;5.72;;
23608;SDS011;11982;50.810;4.442;2024-01-27T03:26:27;22.33;;;5.43;;
23608;SDS011;11982;50.810;4.442;2024-01-27T03:28:52;18.30;;;4.82;;
23608;SDS011;11982;50.810;4.442;2024-01-27T03:31:18;15.85;;;4.93;;
23608;SDS011;11982;50.810;4.442;2024-01-27T03:33:44;18.70;;;5.15;;
23608;SDS011;11982;50.810;4.442;2024-01-27T03:36:10;25.00;;;5.93;;
23608;SDS011;11982;50.810;4.442;2024-01-27T03:38:37;23.40;;;4.45;;
23608;SDS011;11982;50.810;4.442;2024-01-27T03:41:03;28.77;;;5.40;;
23608;SDS011;11982;50.810;4.442;2024-01-27T03:43:29;18.92;;;5.68;;
23608;SDS011;11982;50.810;4.442;2024-01-27T03:45:56;24.40;;;5.22;;
23608;SDS011;11982;50.810;4.442;2024-01-27T03:48:24;25.58;;;5.57;;
23608;SDS011;11982;50.810;4.442;2024-01-27T03:50:51;28.63;;;6.72;;
23608;SDS011;11982;50.810;4.442;2024-01-27T03:53:17;26.40;;;6.38;;
23608;SDS011;11982;50.810;4.442;2024-01-27T03:55:42;22.02;;;6.93;;
23608;SDS011;11982;50.810;4.442;2024-01-27T03:58:08;26.02;;;6.50;;
23608;SDS011;11982;50.810;4.442;2024-01-27T04:00:34;27.95;;;6.22;;
23608;SDS011;11982;50.810;4.442;2024-01-27T04:03:00;23.85;;;6.22;;
23608;SDS011;11982;50.810;4.442;2024-01-27T04:05:26;21.98;;;6.03;;
23608;SDS011;11982;50.810;4.442;2024-01-27T04:07:52;27.23;;;6.88;;
23608;SDS011;11982;50.810;4.442;2024-01-27T04:10:18;26.52;;;6.50;;
23608;SDS011;11982;50.810;4.442;2024-01-27T04:12:45;27.17;;;6.70;;
23608;SDS011;11982;50.810;4.442;2024-01-27T04:15:11;21.30;;;6.50;;
23608;SDS011;11982;50.810;4.442;2024-01-27T04:17:36;27.02;;;7.07;;
23608;SDS011;11982;50.810;4.442;2024-01-27T04:20:03;19.73;;;6.25;;
23608;SDS011;11982;50.810;4.442;2024-01-27T04:22:29;27.75;;;6.97;;
23608;SDS011;11982;50.810;4.442;2024-01-27T04:24:55;27.80;;;8.02;;
23608;SDS011;11982;50.810;4.442;2024-01-27T04:27:21;15.10;;;6.43;;
23608;SDS011;11982;50.810;4.442;2024-01-27T04:29:47;27.13;;;6.95;;
23608;SDS011;11982;50.810;4.442;2024-01-27T04:32:13;23.05;;;7.07;;
23608;SDS011;11982;50.810;4.442;2024-01-27T04:34:39;27.92;;;6.65;;
23608;SDS011;11982;50.810;4.442;2024-01-27T04:37:04;25.35;;;7.00;;
23608;SDS011;11982;50.810;4.442;2024-01-27T04:39:30;22.20;;;7.55;;
23608;SDS011;11982;50.810;4.442;2024-01-27T04:41:56;33.90;;;7.88;;
23608;SDS011;11982;50.810;4.442;2024-01-27T04:44:22;32.42;;;6.82;;
23608;SDS011;11982;50.810;4.442;2024-01-27T04:46:48;30.75;;;7.43;;
23608;SDS011;11982;50.810;4.442;2024-01-27T04:49:16;22.95;;;6.93;;
23608;SDS011;11982;50.810;4.442;2024-01-27T04:51:42;22.88;;;6.63;;
23608;SDS011;11982;50.810;4.442;2024-01-27T04:54:08;25.33;;;6.97;;
23608;SDS011;11982;50.810;4.442;2024-01-27T04:56:34;24.65;;;6.47;;
23608;SDS011;11982;50.810;4.442;2024-01-27T04:58:59;23.80;;;6.55;;
23608;SDS011;11982;50.810;4.442;2024-01-27T05:01:25;23.38;;;6.97;;
23608;SDS011;11982;50.810;4.442;2024-01-27T05:03:51;33.47;;;8.10;;
23608;SDS011;11982;50.810;4.442;2024-01-27T05:06:16;28.63;;;8.32;;
23608;SDS011;11982;50.810;4.442;2024-01-27T05:08:43;32.40;;;8.35;;
23608;SDS011;11982;50.810;4.442;2024-01-27T05:11:09;26.35;;;8.25;;
23608;SDS011;11982;50.810;4.442;2024-01-27T05:13:34;30.42;;;7.97;;
23608;SDS011;11982;50.810;4.442;2024-01-27T05:16:00;28.08;;;8.20;;
23608;SDS011;11982;50.810;4.442;2024-01-27T05:18:26;32.65;;;8.52;;
23608;SDS011;11982;50.810;4.442;2024-01-27T05:20:52;27.50;;;8.60;;
23608;SDS011;11982;50.810;4.442;2024-01-27T05:23:17;27.42;;;8.20;;
23608;SDS011;11982;50.810;4.442;2024-01-27T05:25:43;23.17;;;8.13;;
23608;SDS011;11982;50.810;4.442;2024-01-27T05:28:09;27.45;;;8.57;;
23608;SDS011;11982;50.810;4.442;2024-01-27T05:30:35;30.65;;;8.52;;
23608;SDS011;11982;50.810;4.442;2024-01-27T05:33:00;37.65;;;8.32;;
23608;SDS011;11982;50.810;4.442;2024-01-27T05:35:26;25.73;;;7.95;;
23608;SDS011;11982;50.810;4.442;2024-01-27T05:37:52;24.38;;;8.63;;
23608;SDS011;11982;50.810;4.442;2024-01-27T05:40:19;35.53;;;9.48;;
23608;SDS011;11982;50.810;4.442;2024-01-27T05:42:44;34.38;;;8.63;;
23608;SDS011;11982;50.810;4.442;2024-01-27T05:45:10;20.50;;;8.15;;
23608;SDS011;11982;50.810;4.442;2024-01-27T05:47:36;26.75;;;8.02;;
23608;SDS011;11982;50.810;4.442;2024-01-27T05:50:02;31.00;;;8.63;;
23608;SDS011;11982;50.810;4.442;2024-01-27T05:52:29;25.23;;;8.43;;
23608;SDS011;11982;50.810;4.442;2024-01-27T05:54:55;24.80;;;8.15;;
23608;SDS011;11982;50.810;4.442;2024-01-27T05:57:20;26.90;;;9.27;;
23608;SDS011;11982;50.810;4.442;2024-01-27T05:59:46;22.70;;;8.05;;
23608;SDS011;11982;50.810;4.442;2024-01-27T06:02:12;25.55;;;8.10;;
23608;SDS011;11982;50.810;4.442;2024-01-27T06:04:38;30.25;;;8.65;;
23608;SDS011;11982;50.810;4.442;2024-01-27T06:07:04;28.38;;;8.85;;
23608;SDS011;11982;50.810;4.442;2024-01-27T06:09:29;33.10;;;8.50;;
23608;SDS011;11982;50.810;4.442;2024-01-27T06:11:58;28.45;;;7.82;;
23608;SDS011;11982;50.810;4.442;2024-01-27T06:14:24;28.02;;;8.35;;
23608;SDS011;11982;50.810;4.442;2024-01-27T06:16:50;34.80;;;9.25;;
23608;SDS011;11982;50.810;4.442;2024-01-27T06:19:16;20.92;;;8.60;;
23608;SDS011;11982;50.810;4.442;2024-01-27T06:21:42;30.20;;;8.70;;
23608;SDS011;11982;50.810;4.442;2024-01-27T06:24:07;25.92;;;8.20;;
23608;SDS011;11982;50.810;4.442;2024-01-27T06:26:33;28.70;;;8.82;;
23608;SDS011;11982;50.810;4.442;2024-01-27T06:28:59;25.90;;;8.48;;
23608;SDS011;11982;50.810;4.442;2024-01-27T06:31:25;27.05;;;8.75;;
23608;SDS011;11982;50.810;4.442;2024-01-27T06:33:51;24.33;;;8.48;;
23608;SDS011;11982;50.810;4.442;2024-01-27T06:36:17;38.00;;;9.35;;
23608;SDS011;11982;50.810;4.442;2024-01-27T06:38:43;28.55;;;8.25;;
23608;SDS011;11982;50.810;4.442;2024-01-27T06:41:09;32.33;;;9.63;;
23608;SDS011;11982;50.810;4.442;2024-01-27T06:43:35;25.00;;;9.07;;
23608;SDS011;11982;50.810;4.442;2024-01-27T06:46:00;36.10;;;9.57;;
23608;SDS011;11982;50.810;4.442;2024-01-27T06:48:26;28.40;;;9.32;;
23608;SDS011;11982;50.810;4.442;2024-01-27T06:50:52;36.85;;;9.80;;
23608;SDS011;11982;50.810;4.442;2024-01-27T06:53:18;30.15;;;8.23;;
23608;SDS011;11982;50.810;4.442;2024-01-27T06:55:44;31.60;;;9.40;;
23608;SDS011;11982;50.810;4.442;2024-01-27T06:58:10;30.02;;;9.43;;
23608;SDS011;11982;50.810;4.442;2024-01-27T07:00:36;42.10;;;10.15;;
23608;SDS011;11982;50.810;4.442;2024-01-27T07:03:02;29.50;;;10.38;;
23608;SDS011;11982;50.810;4.442;2024-01-27T07:05:28;30.58;;;10.07;;
23608;SDS011;11982;50.810;4.442;2024-01-27T07:07:54;24.05;;;8.38;;
23608;SDS011;11982;50.810;4.442;2024-01-27T07:10:20;31.63;;;9.30;;
23608;SDS011;11982;50.810;4.442;2024-01-27T07:12:46;29.98;;;9.55;;
23608;SDS011;11982;50.810;4.442;2024-01-27T07:15:11;29.30;;;9.40;;
23608;SDS011;11982;50.810;4.442;2024-01-27T07:17:37;34.70;;;9.95;;
23608;SDS011;11982;50.810;4.442;2024-01-27T07:20:03;35.10;;;11.50;;
23608;SDS011;11982;50.810;4.442;2024-01-27T07:22:30;39.53;;;11.95;;
23608;SDS011;11982;50.810;4.442;2024-01-27T07:24:56;29.48;;;10.77;;
23608;SDS011;11982;50.810;4.442;2024-01-27T07:27:21;34.03;;;10.25;;
23608;SDS011;11982;50.810;4.442;2024-01-27T07:29:48;26.77;;;10.52;;
23608;SDS011;11982;50.810;4.442;2024-01-27T07:32:14;36.50;;;10.98;;
23608;SDS011;11982;50.810;4.442;2024-01-27T07:34:40;38.22;;;11.52;;
23608;SDS011;11982;50.810;4.442;2024-01-27T07:37:06;30.52;;;10.07;;
23608;SDS011;11982;50.810;4.442;2024-01-27T07:39:33;35.05;;;11.77;;
23608;SDS011;11982;50.810;4.442;2024-01-27T07:41:58;25.92;;;11.23;;
23608;SDS011;11982;50.810;4.442;2024-01-27T07:44:24;38.25;;;11.68;;
23608;SDS011;11982;50.810;4.442;2024-01-27T07:46:50;38.22;;;11.23;;
23608;SDS011;11982;50.810;4.442;2024-01-27T07:49:15;30.58;;;11.13;;
23608;SDS011;11982;50.810;4.442;2024-01-27T07:51:42;36.10;;;11.18;;
23608;SDS011;11982;50.810;4.442;2024-01-27T07:54:08;40.42;;;12.23;;
23608;SDS011;11982;50.810;4.442;2024-01-27T07:56:34;30.42;;;10.65;;
23608;SDS011;11982;50.810;4.442;2024-01-27T07:58:59;37.55;;;10.70;;
23608;SDS011;11982;50.810;4.442;2024-01-27T08:01:25;33.15;;;11.48;;
23608;SDS011;11982;50.810;4.442;2024-01-27T08:03:51;41.70;;;10.65;;
23608;SDS011;11982;50.810;4.442;2024-01-27T08:06:17;31.42;;;10.43;;
23608;SDS011;11982;50.810;4.442;2024-01-27T08:08:45;30.67;;;11.10;;
23608;SDS011;11982;50.810;4.442;2024-01-27T08:11:11;36.92;;;11.45;;
23608;SDS011;11982;50.810;4.442;2024-01-27T08:13:37;33.22;;;9.93;;
23608;SDS011;11982;50.810;4.442;2024-01-27T08:16:03;43.10;;;11.50;;
23608;SDS011;11982;50.810;4.442;2024-01-27T08:18:30;31.17;;;11.18;;
23608;SDS011;11982;50.810;4.442;2024-01-27T08:20:56;52.72;;;12.73;;
23608;SDS011;11982;50.810;4.442;2024-01-27T08:23:22;36.38;;;10.93;;
23608;SDS011;11982;50.810;4.442;2024-01-27T08:25:48;47.47;;;11.68;;
23608;SDS011;11982;50.810;4.442;2024-01-27T08:28:17;47.40;;;12.18;;
23608;SDS011;11982;50.810;4.442;2024-01-27T08:30:43;33.38;;;12.40;;
23608;SDS011;11982;50.810;4.442;2024-01-27T08:33:09;33.30;;;12.43;;
23608;SDS011;11982;50.810;4.442;2024-01-27T08:35:35;40.25;;;12.10;;
23608;SDS011;11982;50.810;4.442;2024-01-27T08:38:00;35.53;;;10.70;;
23608;SDS011;11982;50.810;4.442;2024-01-27T08:40:28;41.03;;;9.45;;
23608;SDS011;11982;50.810;4.442;2024-01-27T08:42:54;28.63;;;9.05;;
23608;SDS011;11982;50.810;4.442;2024-01-27T08:45:20;29.95;;;10.65;;
23608;SDS011;11982;50.810;4.442;2024-01-27T08:47:45;27.35;;;8.98;;
23608;SDS011;11982;50.810;4.442;2024-01-27T08:50:11;24.73;;;7.15;;
23608;SDS011;11982;50.810;4.442;2024-01-27T08:52:37;30.52;;;7.95;;
23608;SDS011;11982;50.810;4.442;2024-01-27T08:55:02;43.30;;;7.57;;
23608;SDS011;11982;50.810;4.442;2024-01-27T08:57:29;38.35;;;6.93;;
23608;SDS011;11982;50.810;4.442;2024-01-27T08:59:54;29.92;;;6.50;;
23608;SDS011;11982;50.810;4.442;2024-01-27T09:02:20;23.48;;;4.82;;
23608;SDS011;11982;50.810;4.442;2024-01-27T09:04:46;31.95;;;5.35;;
23608;SDS011;11982;50.810;4.442;2024-01-27T09:07:11;28.83;;;4.97;;
23608;SDS011;11982;50.810;4.442;2024-01-27T09:09:37;25.73;;;4.60;;
23608;SDS011;11982;50.810;4.442;2024-01-27T09:12:04;34.72;;;4.40;;
23608;SDS011;11982;50.810;4.442;2024-01-27T09:14:30;44.08;;;5.18;;
23608;SDS011;11982;50.810;4.442;2024-01-27T09:16:56;27.13;;;4.72;;
23608;SDS011;11982;50.810;4.442;2024-01-27T09:19:21;29.92;;;4.55;;
23608;SDS011;11982;50.810;4.442;2024-01-27T09:21:47;20.20;;;4.00;;
23608;SDS011;11982;50.810;4.442;2024-01-27T09:24:14;27.75;;;4.43;;
23608;SDS011;11982;50.810;4.442;2024-01-27T09:26:39;26.77;;;3.58;;
23608;SDS011;11982;50.810;4.442;2024-01-27T09:29:05;18.67;;;3.85;;
23608;SDS011;11982;50.810;4.442;2024-01-27T09:31:31;25.98;;;4.07;;
23608;SDS011;11982;50.810;4.442;2024-01-27T09:33:57;19.23;;;3.58;;
23608;SDS011;11982;50.810;4.442;2024-01-27T09:36:23;21.00;;;4.38;;
23608;SDS011;11982;50.810;4.442;2024-01-27T09:38:48;18.13;;;3.22;;
23608;SDS011;11982;50.810;4.442;2024-01-27T09:41:14;22.92;;;4.55;;
23608;SDS011;11982;50.810;4.442;2024-01-27T09:43:44;29.02;;;4.68;;
23608;SDS011;11982;50.810;4.442;2024-01-27T09:46:19;24.52;;;4.85;;
23608;SDS011;11982;50.810;4.442;2024-01-27T09:51:10;23.92;;;4.82;;
23608;SDS011;11982;50.810;4.442;2024-01-27T09:53:37;18.90;;;4.70;;
23608;SDS011;11982;50.810;4.442;2024-01-27T09:56:03;22.10;;;4.40;;
23608;SDS011;11982;50.810;4.442;2024-01-27T09:58:29;24.27;;;4.55;;
23608;SDS011;11982;50.810;4.442;2024-01-27T10:00:59;23.23;;;4.75;;
23608;SDS011;11982;50.810;4.442;2024-01-27T10:03:26;23.33;;;4.22;;
23608;SDS011;11982;50.810;4.442;2024-01-27T10:05:53;22.40;;;4.53;;
23608;SDS011;11982;50.810;4.442;2024-01-27T10:08:21;24.42;;;4.75;;
23608;SDS011;11982;50.810;4.442;2024-01-27T10:10:48;21.58;;;4.35;;
23608;SDS011;11982;50.810;4.442;2024-01-27T10:13:21;25.35;;;3.80;;
23608;SDS011;11982;50.810;4.442;2024-01-27T10:16:26;33.47;;;5.13;;
23608;SDS011;11982;50.810;4.442;2024-01-27T10:18:45;23.83;;;5.07;;
23608;SDS011;11982;50.810;4.442;2024-01-27T10:21:14;20.63;;;4.05;;
23608;SDS011;11982;50.810;4.442;2024-01-27T10:23:44;20.60;;;3.95;;
23608;SDS011;11982;50.810;4.442;2024-01-27T10:26:10;14.57;;;3.85;;
23608;SDS011;11982;50.810;4.442;2024-01-27T10:28:36;17.10;;;3.50;;
23608;SDS011;11982;50.810;4.442;2024-01-27T10:31:09;24.25;;;4.00;;
23608;SDS011;11982;50.810;4.442;2024-01-27T10:33:38;20.83;;;4.82;;
23608;SDS011;11982;50.810;4.442;2024-01-27T10:36:05;22.25;;;4.70;;
23608;SDS011;11982;50.810;4.442;2024-01-27T10:38:37;19.60;;;3.92;;
23608;SDS011;11982;50.810;4.442;2024-01-27T10:41:04;18.73;;;4.20;;
23608;SDS011;11982;50.810;4.442;2024-01-27T10:43:37;18.10;;;4.18;;
23608;SDS011;11982;50.810;4.442;2024-01-27T10:46:05;21.08;;;4.00;;
23608;SDS011;11982;50.810;4.442;2024-01-27T10:48:35;15.18;;;3.90;;
23608;SDS011;11982;50.810;4.442;2024-01-27T10:51:03;23.20;;;4.25;;
23608;SDS011;11982;50.810;4.442;2024-01-27T10:53:34;23.17;;;4.22;;
23608;SDS011;11982;50.810;4.442;2024-01-27T10:56:03;15.10;;;3.53;;
23608;SDS011;11982;50.810;4.442;2024-01-27T10:58:34;21.83;;;3.95;;
23608;SDS011;11982;50.810;4.442;2024-01-27T11:01:09;21.70;;;3.70;;
23608;SDS011;11982;50.810;4.442;2024-01-27T11:03:38;22.55;;;5.13;;
23608;SDS011;11982;50.810;4.442;2024-01-27T11:06:08;18.27;;;3.83;;
23608;SDS011;11982;50.810;4.442;2024-01-27T11:08:34;19.73;;;3.55;;
23608;SDS011;11982;50.810;4.442;2024-01-27T11:11:00;16.05;;;3.83;;
23608;SDS011;11982;50.810;4.442;2024-01-27T11:13:29;16.40;;;3.42;;
23608;SDS011;11982;50.810;4.442;2024-01-27T11:15:57;11.43;;;3.35;;
23608;SDS011;11982;50.810;4.442;2024-01-27T11:18:26;12.82;;;3.55;;
23608;SDS011;11982;50.810;4.442;2024-01-27T11:20:53;12.63;;;3.53;;
23608;SDS011;11982;50.810;4.442;2024-01-27T11:23:19;13.82;;;3.78;;
23608;SDS011;11982;50.810;4.442;2024-01-27T11:25:45;16.23;;;4.35;;
23608;SDS011;11982;50.810;4.442;2024-01-27T11:28:11;13.75;;;2.88;;
23608;SDS011;11982;50.810;4.442;2024-01-27T11:30:39;19.52;;;3.40;;
23608;SDS011;11982;50.810;4.442;2024-01-27T11:33:06;20.70;;;4.25;;
23608;SDS011;11982;50.810;4.442;2024-01-27T11:35:33;18.70;;;3.47;;
23608;SDS011;11982;50.810;4.442;2024-01-27T11:37:59;17.08;;;3.00;;
23608;SDS011;11982;50.810;4.442;2024-01-27T11:40:24;12.40;;;2.65;;
23608;SDS011;11982;50.810;4.442;2024-01-27T11:42:54;8.95;;;2.45;;
23608;SDS011;11982;50.810;4.442;2024-01-27T11:45:20;12.18;;;2.83;;
23608;SDS011;11982;50.810;4.442;2024-01-27T11:47:46;14.35;;;2.60;;
23608;SDS011;11982;50.810;4.442;2024-01-27T11:50:12;9.20;;;2.33;;
23608;SDS011;11982;50.810;4.442;2024-01-27T11:52:37;17.08;;;2.83;;
23608;SDS011;11982;50.810;4.442;2024-01-27T11:55:03;16.98;;;2.63;;
23608;SDS011;11982;50.810;4.442;2024-01-27T11:57:29;15.05;;;2.75;;
23608;SDS011;11982;50.810;4.442;2024-01-27T11:59:55;19.05;;;3.10;;
23608;SDS011;11982;50.810;4.442;2024-01-27T12:02:21;19.75;;;2.85;;
23608;SDS011;11982;50.810;4.442;2024-01-27T12:04:47;14.40;;;3.10;;
23608;SDS011;11982;50.810;4.442;2024-01-27T12:07:14;12.88;;;2.50;;
23608;SDS011;11982;50.810;4.442;2024-01-27T12:09:40;13.45;;;3.15;;
23608;SDS011;11982;50.810;4.442;2024-01-27T12:12:06;15.40;;;3.03;;
23608;SDS011;11982;50.810;4.442;2024-01-27T12:14:39;11.40;;;2.83;;
23608;SDS011;11982;50.810;4.442;2024-01-27T12:17:12;19.05;;;2.95;;
23608;SDS011;11982;50.810;4.442;2024-01-27T12:19:38;12.05;;;2.88;;
23608;SDS011;11982;50.810;4.442;2024-01-27T12:22:04;15.50;;;4.00;;
23608;SDS011;11982;50.810;4.442;2024-01-27T12:24:45;11.32;;;2.75;;
23608;SDS011;11982;50.810;4.442;2024-01-27T12:27:10;12.07;;;2.10;;
23608;SDS011;11982;50.810;4.442;2024-01-27T12:29:36;17.10;;;3.45;;
23608;SDS011;11982;50.810;4.442;2024-01-27T12:32:02;10.00;;;2.13;;
23608;SDS011;11982;50.810;4.442;2024-01-27T12:34:28;8.93;;;1.83;;
23608;SDS011;11982;50.810;4.442;2024-01-27T12:36:54;14.23;;;2.40;;
23608;SDS011;11982;50.810;4.442;2024-01-27T12:39:20;10.02;;;2.60;;
23608;SDS011;11982;50.810;4.442;2024-01-27T12:41:46;7.57;;;2.00;;
23608;SDS011;11982;50.810;4.442;2024-01-27T12:44:12;10.77;;;2.42;;
23608;SDS011;11982;50.810;4.442;2024-01-27T12:46:37;8.02;;;2.63;;
23608;SDS011;11982;50.810;4.442;2024-01-27T12:49:03;8.98;;;2.30;;
23608;SDS011;11982;50.810;4.442;2024-01-27T12:51:30;13.05;;;2.28;;
23608;SDS011;11982;50.810;4.442;2024-01-27T12:53:56;8.10;;;2.45;;
23608;SDS011;11982;50.810;4.442;2024-01-27T12:56:22;13.88;;;2.20;;
23608;SDS011;11982;50.810;4.442;2024-01-27T12:58:48;11.73;;;2.45;;
23608;SDS011;11982;50.810;4.442;2024-01-27T13:01:14;11.20;;;2.40;;
23608;SDS011;11982;50.810;4.442;2024-01-27T13:03:40;10.05;;;2.42;;
23608;SDS011;11982;50.810;4.442;2024-01-27T13:06:06;8.65;;;1.90;;
23608;SDS011;11982;50.810;4.442;2024-01-27T13:08:31;8.48;;;2.15;;
23608;SDS011;11982;50.810;4.442;2024-01-27T13:10:57;9.05;;;1.95;;
23608;SDS011;11982;50.810;4.442;2024-01-27T13:13:23;6.63;;;2.08;;
23608;SDS011;11982;50.810;4.442;2024-01-27T13:15:49;14.00;;;2.92;;
23608;SDS011;11982;50.810;4.442;2024-01-27T13:18:14;12.85;;;2.53;;
23608;SDS011;11982;50.810;4.442;2024-01-27T13:20:40;15.75;;;2.63;;
23608;SDS011;11982;50.810;4.442;2024-01-27T13:23:06;10.30;;;2.45;;
23608;SDS011;11982;50.810;4.442;2024-01-27T13:25:32;9.45;;;2.25;;
23608;SDS011;11982;50.810;4.442;2024-01-27T13:27:58;15.57;;;2.50;;
23608;SDS011;11982;50.810;4.442;2024-01-27T13:30:24;15.55;;;2.80;;
23608;SDS011;11982;50.810;4.442;2024-01-27T13:32:50;9.13;;;2.00;;
23608;SDS011;11982;50.810;4.442;2024-01-27T13:35:16;9.23;;;2.55;;
23608;SDS011;11982;50.810;4.442;2024-01-27T13:37:41;10.43;;;2.97;;
23608;SDS011;11982;50.810;4.442;2024-01-27T13:40:07;12.48;;;2.15;;
23608;SDS011;11982;50.810;4.442;2024-01-27T13:42:34;13.60;;;3.10;;
23608;SDS011;11982;50.810;4.442;2024-01-27T13:45:01;11.48;;;2.60;;
23608;SDS011;11982;50.810;4.442;2024-01-27T13:47:27;11.85;;;2.70;;
23608;SDS011;11982;50.810;4.442;2024-01-27T13:49:53;15.48;;;2.78;;
23608;SDS011;11982;50.810;4.442;2024-01-27T13:52:19;12.90;;;3.08;;
23608;SDS011;11982;50.810;4.442;2024-01-27T13:54:45;9.82;;;2.28;;
23608;SDS011;11982;50.810;4.442;2024-01-27T13:57:10;12.57;;;2.38;;
23608;SDS011;11982;50.810;4.442;2024-01-27T13:59:36;8.57;;;2.20;;
23608;SDS011;11982;50.810;4.442;2024-01-27T14:02:02;10.07;;;2.10;;
23608;SDS011;11982;50.810;4.442;2024-01-27T14:04:29;11.55;;;2.15;;
23608;SDS011;11982;50.810;4.442;2024-01-27T14:06:54;8.95;;;2.28;;
23608;SDS011;11982;50.810;4.442;2024-01-27T14:09:21;16.77;;;2.67;;
23608;SDS011;11982;50.810;4.442;2024-01-27T14:11:47;8.63;;;2.50;;
23608;SDS011;11982;50.810;4.442;2024-01-27T14:14:13;10.10;;;2.22;;
23608;SDS011;11982;50.810;4.442;2024-01-27T14:16:38;11.55;;;2.53;;
23608;SDS011;11982;50.810;4.442;2024-01-27T14:19:05;9.95;;;2.72;;
23608;SDS011;11982;50.810;4.442;2024-01-27T14:21:31;7.57;;;2.22;;
23608;SDS011;11982;50.810;4.442;2024-01-27T14:23:57;14.07;;;2.63;;
23608;SDS011;11982;50.810;4.442;2024-01-27T14:26:28;18.40;;;3.03;;
23608;SDS011;11982;50.810;4.442;2024-01-27T14:28:54;11.55;;;2.58;;
23608;SDS011;11982;50.810;4.442;2024-01-27T14:31:20;11.50;;;2.13;;
23608;SDS011;11982;50.810;4.442;2024-01-27T14:33:46;11.13;;;2.38;;